Time;durP1;ratioP1;P1;durP2;ratioP2;P2;SDS_P1;SDS_P2;PMS_P1;PMS_P2;Temp;Humidity;BMP_temperature;BMP_pressure;BME280_temperature;BME280_humidity;BME280_pressure;Samples;Min_cycle;Max_cycle;Signal;HPM_P1;HPM_P2
2023/04/12 00:02:19;;;;;;;12.50;9.57;;;11.90;84.20;;;;;;5000717;28;20204;-62
2023/04/12 00:04:54;;;;;;;14.40;10.87;;;11.80;84.10;;;;;;4999234;28;20580;-62
2023/04/12 00:07:23;;;;;;;12.07;9.63;;;11.80;84.40;;;;;;5004491;28;20296;-62
2023/04/12 00:09:50;;;;;;;11.97;9.50;;;11.80;84.60;;;;;;5001231;28;20240;-62
2023/04/12 00:12:18;;;;;;;13.27;9.00;;;11.90;84.80;;;;;;4997696;28;20202;-62
2023/04/12 00:14:45;;;;;;;10.80;8.93;;;11.90;85.00;;;;;;5007368;28;20269;-62
2023/04/12 00:17:12;;;;;;;12.60;10.07;;;11.90;84.90;;;;;;5002422;28;20207;-62
2023/04/12 00:19:43;;;;;;;12.60;10.07;;;11.90;85.00;;;;;;5012044;28;20245;-62
2023/04/12 00:22:10;;;;;;;13.00;9.07;;;12.00;85.10;;;;;;5007130;28;20261;-62
2023/04/12 00:24:39;;;;;;;12.33;9.43;;;12.00;85.30;;;;;;5008807;28;20205;-63
2023/04/12 00:27:07;;;;;;;12.30;9.17;;;12.00;85.30;;;;;;5007231;28;20629;-62
2023/04/12 00:29:35;;;;;;;10.87;9.07;;;12.00;85.30;;;;;;5012970;28;20255;-62
2023/04/12 00:32:04;;;;;;;14.67;9.17;;;12.10;85.30;;;;;;5009639;28;20220;-62
2023/04/12 00:34:31;;;;;;;10.17;8.53;;;12.10;85.10;;;;;;5035294;28;20215;-62
2023/04/12 00:37:00;;;;;;;14.30;9.93;;;12.10;85.60;;;;;;5007364;28;20274;-63
2023/04/12 00:39:27;;;;;;;12.00;10.23;;;12.10;85.00;;;;;;5007698;28;20617;-63
2023/04/12 00:41:56;;;;;;;14.30;10.53;;;12.10;85.20;;;;;;5003510;28;20199;-63
2023/04/12 00:44:23;;;;;;;12.53;10.40;;;12.10;85.50;;;;;;5011493;28;20303;-62
2023/04/12 00:46:50;;;;;;;13.80;11.13;;;12.10;85.90;;;;;;5013823;28;20236;-62
2023/04/12 00:49:18;;;;;;;14.47;10.77;;;12.20;86.30;;;;;;5010433;28;20230;-62
2023/04/12 00:51:45;;;;;;;13.73;10.93;;;12.20;86.70;;;;;;5007290;28;20223;-62
2023/04/12 00:54:13;;;;;;;17.20;11.73;;;12.20;87.40;;;;;;5004119;28;20698;-62
2023/04/12 00:56:40;;;;;;;18.10;12.00;;;12.20;88.00;;;;;;5042774;28;20687;-62
2023/04/12 00:59:07;;;;;;;16.17;12.67;;;12.20;88.40;;;;;;5006428;28;20228;-62
2023/04/12 01:01:37;;;;;;;15.03;11.13;;;12.20;89.00;;;;;;5006097;28;20203;-63
2023/04/12 01:04:04;;;;;;;13.23;11.30;;;12.10;89.40;;;;;;5007588;28;20198;-62
2023/04/12 01:06:50;;;;;;;14.07;11.37;;;12.20;89.80;;;;;;5011552;28;20196;-62
2023/04/12 01:09:33;;;;;;;14.97;12.17;;;12.10;90.10;;;;;;5006738;28;20212;-62
2023/04/12 01:12:25;;;;;;;15.37;11.63;;;12.10;90.20;;;;;;5005417;28;20198;-63
2023/04/12 01:15:06;;;;;;;17.60;12.60;;;12.00;90.40;;;;;;5006280;28;20314;-62
2023/04/12 01:17:40;;;;;;;13.57;11.40;;;12.00;90.50;;;;;;5010433;28;20225;-62
2023/04/12 01:20:21;;;;;;;14.77;12.23;;;12.00;90.60;;;;;;5040166;28;20201;-62
2023/04/12 01:23:13;;;;;;;19.33;13.20;;;11.90;90.70;;;;;;5042272;28;20207;-62
2023/04/12 01:25:47;;;;;;;18.33;13.57;;;11.90;90.90;;;;;;5022340;28;20203;-63
2023/04/12 01:28:25;;;;;;;18.50;13.30;;;11.90;91.20;;;;;;5008097;28;20203;-63
2023/04/12 01:30:53;;;;;;;15.47;12.90;;;11.80;91.40;;;;;;5009131;28;20211;-62
2023/04/12 01:33:22;;;;;;;15.80;13.37;;;11.80;91.70;;;;;;5009353;28;20197;-62
2023/04/12 01:35:52;;;;;;;17.63;13.77;;;11.70;91.70;;;;;;5000103;28;20231;-62
2023/04/12 01:38:20;;;;;;;18.00;14.47;;;11.70;91.80;;;;;;5010647;28;20207;-63
2023/04/12 01:40:47;;;;;;;19.40;14.60;;;11.70;91.90;;;;;;5036142;28;20613;-62
2023/04/12 01:43:15;;;;;;;18.83;13.90;;;11.70;92.20;;;;;;5006948;28;20242;-62
2023/04/12 01:45:42;;;;;;;17.63;13.63;;;11.70;92.30;;;;;;5005156;28;20240;-62
2023/04/12 01:48:10;;;;;;;19.07;13.93;;;11.60;92.40;;;;;;5013067;28;20225;-62
2023/04/12 01:50:59;;;;;;;17.53;14.10;;;11.60;92.50;;;;;;5018995;28;20210;-62
2023/04/12 01:54:01;;;;;;;20.73;14.93;;;11.60;92.60;;;;;;5005200;28;20222;-62
2023/04/12 01:56:33;;;;;;;16.13;13.53;;;11.60;92.70;;;;;;5004850;28;20225;-62
2023/04/12 01:59:03;;;;;;;15.73;13.20;;;11.60;92.70;;;;;;5004675;28;20210;-62
2023/04/12 02:01:30;;;;;;;17.17;14.40;;;11.60;92.50;;;;;;5006437;28;20619;-62
2023/04/12 02:03:59;;;;;;;17.97;13.77;;;11.60;92.50;;;;;;5008455;28;20212;-62
2023/04/12 02:06:27;;;;;;;18.63;14.30;;;11.60;92.40;;;;;;5009007;28;20219;-63
2023/04/12 02:09:01;;;;;;;19.23;14.53;;;11.70;92.40;;;;;;5008266;28;20211;-63
2023/04/12 02:11:28;;;;;;;19.00;15.00;;;11.70;92.40;;;;;;5005420;28;20619;-63
2023/04/12 02:13:55;;;;;;;18.57;15.17;;;11.70;92.50;;;;;;5001559;28;20676;-62
2023/04/12 02:16:23;;;;;;;19.80;14.47;;;11.80;92.50;;;;;;5002597;28;20223;-63
2023/04/12 02:18:50;;;;;;;17.23;13.83;;;11.80;92.50;;;;;;5005428;28;20201;-62
2023/04/12 02:21:18;;;;;;;21.93;14.87;;;11.80;92.50;;;;;;4999648;28;20211;-62
2023/04/12 02:23:45;;;;;;;20.77;15.43;;;11.80;92.50;;;;;;5001094;28;20286;-62
2023/04/12 02:26:12;;;;;;;21.13;15.87;;;11.90;92.60;;;;;;5011988;28;20659;-63
2023/04/12 02:28:39;;;;;;;19.30;15.90;;;11.90;92.70;;;;;;5004533;28;20245;-62
2023/04/12 02:31:10;;;;;;;21.63;15.47;;;11.90;92.70;;;;;;5010686;28;20204;-62
2023/04/12 02:33:40;;;;;;;19.50;15.63;;;12.00;92.80;;;;;;5038003;28;20215;-62
2023/04/12 02:36:10;;;;;;;19.13;15.07;;;12.00;92.70;;;;;;5012570;28;20215;-62
2023/04/12 02:38:38;;;;;;;18.97;15.20;;;12.10;92.70;;;;;;5007262;28;20201;-63
2023/04/12 02:41:06;;;;;;;18.10;14.70;;;12.10;92.60;;;;;;5006658;28;20202;-62
2023/04/12 02:43:34;;;;;;;21.43;16.33;;;12.10;92.60;;;;;;5014347;28;20212;-62
2023/04/12 02:46:06;;;;;;;21.87;16.33;;;12.10;92.70;;;;;;5011968;28;20205;-62
2023/04/12 02:48:42;;;;;;;21.13;16.17;;;12.10;92.90;;;;;;5011157;28;20248;-62
2023/04/12 02:51:10;;;;;;;25.70;17.73;;;12.10;93.30;;;;;;5011728;28;20253;-62
2023/04/12 02:53:39;;;;;;;24.83;17.07;;;12.10;93.30;;;;;;5010635;28;20204;-62
2023/04/12 02:56:12;;;;;;;22.10;17.47;;;12.10;93.40;;;;;;5010398;28;20243;-62
2023/04/12 02:58:39;;;;;;;24.33;18.67;;;12.10;93.60;;;;;;5003366;28;20218;-63
2023/04/12 03:01:11;;;;;;;25.63;19.27;;;12.20;93.70;;;;;;5008425;28;20208;-62
2023/04/12 03:03:57;;;;;;;23.23;17.43;;;12.20;93.80;;;;;;5033333;28;20212;-63
2023/04/12 03:06:52;;;;;;;23.20;18.43;;;12.20;93.90;;;;;;5004581;28;20204;-63
2023/04/12 03:09:37;;;;;;;26.17;18.70;;;12.30;93.90;;;;;;5032981;28;20218;-62
2023/04/12 03:12:05;;;;;;;24.30;18.17;;;12.30;93.90;;;;;;5003031;28;20216;-63
2023/04/12 03:14:37;;;;;;;24.17;18.77;;;12.30;93.90;;;;;;5018351;28;20239;-62
2023/04/12 03:17:05;;;;;;;28.27;18.93;;;12.30;93.90;;;;;;5035213;28;20205;-63
2023/04/12 03:19:35;;;;;;;26.60;18.77;;;12.30;93.80;;;;;;5011198;28;20210;-63
2023/04/12 03:22:04;;;;;;;27.97;19.70;;;12.30;93.90;;;;;;5002960;28;20645;-63
2023/04/12 03:24:36;;;;;;;27.60;20.30;;;12.30;94.00;;;;;;5005736;28;20266;-62
2023/04/12 03:27:05;;;;;;;24.20;19.40;;;12.30;94.00;;;;;;5030182;28;20589;-62
2023/04/12 03:29:34;;;;;;;27.50;20.43;;;12.30;94.10;;;;;;5019068;28;20215;-62
2023/04/12 03:32:02;;;;;;;27.10;21.13;;;12.30;94.20;;;;;;5009186;28;20210;-63
2023/04/12 03:34:31;;;;;;;27.70;20.93;;;12.30;94.20;;;;;;5012955;28;20204;-63
2023/04/12 03:37:03;;;;;;;27.67;21.27;;;12.30;94.20;;;;;;5008846;28;20218;-63
2023/04/12 03:39:37;;;;;;;28.83;20.77;;;12.40;94.30;;;;;;5003789;28;20204;-62
2023/04/12 03:42:07;;;;;;;29.67;21.83;;;12.40;94.40;;;;;;5010220;28;20199;-63
2023/04/12 03:44:48;;;;;;;29.23;22.27;;;12.40;94.40;;;;;;5015883;28;20251;-62
2023/04/12 03:47:15;;;;;;;32.40;23.13;;;12.40;94.80;;;;;;5011124;28;20334;-63
2023/04/12 03:49:42;;;;;;;31.17;22.90;;;12.40;94.60;;;;;;5010911;28;20231;-63
2023/04/12 03:52:13;;;;;;;30.07;23.00;;;12.40;94.70;;;;;;5007911;28;20189;-63
2023/04/12 03:54:43;;;;;;;27.97;21.97;;;12.40;94.80;;;;;;5028017;28;20212;-63
2023/04/12 03:57:15;;;;;;;31.13;23.50;;;12.40;94.80;;;;;;5009112;28;20254;-62
2023/04/12 03:59:48;;;;;;;27.77;22.23;;;12.40;94.90;;;;;;5017409;28;20217;-63
2023/04/12 04:02:19;;;;;;;28.23;23.03;;;12.40;95.00;;;;;;5021379;28;20207;-63
2023/04/12 04:04:50;;;;;;;28.93;22.20;;;12.40;95.00;;;;;;5030904;28;20219;-63
2023/04/12 04:07:25;;;;;;;26.90;22.13;;;12.40;94.90;;;;;;5008483;28;20273;-62
2023/04/12 04:09:54;;;;;;;28.30;21.70;;;12.40;94.90;;;;;;5036311;28;20295;-63
2023/04/12 04:12:24;;;;;;;26.17;21.23;;;12.40;94.90;;;;;;5009763;28;20216;-63
2023/04/12 04:14:53;;;;;;;28.13;22.17;;;12.40;94.90;;;;;;5009583;28;20196;-62
2023/04/12 04:17:32;;;;;;;28.93;21.67;;;12.40;94.80;;;;;;5004575;28;20541;-62
2023/04/12 04:19:59;;;;;;;29.83;21.87;;;12.30;94.80;;;;;;5020794;28;20231;-62
2023/04/12 04:22:31;;;;;;;27.80;21.33;;;12.30;94.80;;;;;;5010026;28;20200;-62
2023/04/12 04:25:01;;;;;;;27.33;20.73;;;12.30;94.80;;;;;;5008314;28;20522;-63
2023/04/12 04:27:33;;;;;;;28.77;22.07;;;12.30;94.70;;;;;;5018939;28;20219;-63
2023/04/12 04:30:01;;;;;;;27.30;22.10;;;12.30;94.70;;;;;;5030422;28;20239;-63
2023/04/12 04:32:30;;;;;;;27.70;20.90;;;12.30;94.70;;;;;;5005282;28;20274;-63
2023/04/12 04:34:58;;;;;;;27.27;20.43;;;12.30;94.70;;;;;;5009121;28;20303;-62
2023/04/12 04:37:34;;;;;;;28.63;21.37;;;12.40;94.70;;;;;;5034681;28;20197;-63
2023/04/12 04:40:07;;;;;;;27.67;20.53;;;12.40;94.70;;;;;;5006646;28;20580;-63
2023/04/12 04:42:38;;;;;;;29.70;22.50;;;12.40;94.70;;;;;;5016772;28;20223;-63
2023/04/12 04:45:12;;;;;;;25.03;19.47;;;12.40;94.80;;;;;;5003811;28;20325;-62
2023/04/12 04:47:42;;;;;;;26.17;20.07;;;12.50;94.80;;;;;;5036406;28;20326;-63
2023/04/12 04:50:10;;;;;;;26.23;20.10;;;12.50;94.70;;;;;;5016372;28;20214;-63
2023/04/12 04:52:38;;;;;;;27.70;20.07;;;12.50;94.60;;;;;;5010365;28;20225;-63
2023/04/12 04:55:10;;;;;;;26.03;21.10;;;12.50;94.60;;;;;;5007629;28;20698;-63
2023/04/12 04:57:40;;;;;;;22.43;18.90;;;12.50;94.60;;;;;;5026872;28;20660;-63
2023/04/12 05:00:10;;;;;;;24.97;19.40;;;12.50;94.50;;;;;;5006476;28;20192;-63
2023/04/12 05:02:44;;;;;;;24.17;19.93;;;12.50;94.50;;;;;;5035654;28;20203;-63
2023/04/12 05:05:17;;;;;;;23.23;18.30;;;12.60;94.50;;;;;;5019236;28;20210;-63
2023/04/12 05:07:46;;;;;;;25.97;18.90;;;12.60;94.50;;;;;;5002899;28;20307;-63
2023/04/12 05:10:13;;;;;;;22.53;19.90;;;12.60;94.40;;;;;;5007680;28;20209;-63
2023/04/12 05:12:41;;;;;;;24.97;18.80;;;12.70;94.40;;;;;;5037656;28;20227;-63
2023/04/12 05:15:09;;;;;;;23.43;18.77;;;12.70;94.40;;;;;;5036909;28;20211;-63
2023/04/12 05:17:39;;;;;;;24.30;18.80;;;12.70;94.40;;;;;;5038109;28;20204;-62
2023/04/12 05:20:09;;;;;;;24.07;19.50;;;12.80;94.40;;;;;;5014199;28;20241;-63
2023/04/12 05:22:37;;;;;;;22.70;19.30;;;12.90;94.30;;;;;;5008562;28;20208;-63
2023/04/12 05:25:05;;;;;;;27.23;20.37;;;12.90;94.20;;;;;;5003540;28;20227;-63
2023/04/12 05:27:38;;;;;;;22.07;17.63;;;13.00;94.10;;;;;;5040196;28;20215;-63
2023/04/12 05:30:07;;;;;;;23.80;18.33;;;13.10;94.10;;;;;;5036242;28;20208;-62
2023/04/12 05:32:35;;;;;;;22.87;18.90;;;13.10;94.10;;;;;;5022856;28;20211;-63
2023/04/12 05:35:02;;;;;;;25.93;19.77;;;13.20;94.10;;;;;;5003363;28;20535;-63
2023/04/12 05:37:30;;;;;;;28.23;20.37;;;13.30;94.00;;;;;;5008196;28;20263;-63
2023/04/12 05:39:57;;;;;;;24.53;18.70;;;13.30;94.00;;;;;;5012131;28;20205;-62
2023/04/12 05:42:24;;;;;;;26.27;18.90;;;13.30;94.30;;;;;;5006409;28;20219;-63
2023/04/12 05:44:51;;;;;;;23.57;18.80;;;13.40;94.10;;;;;;5001786;28;20251;-63
2023/04/12 05:47:20;;;;;;;24.33;18.63;;;13.50;94.10;;;;;;5012500;28;20665;-63
2023/04/12 05:49:47;;;;;;;21.83;17.73;;;13.60;94.10;;;;;;5009308;28;20208;-63
2023/04/12 05:52:18;;;;;;;22.90;17.97;;;13.80;94.00;;;;;;5011910;28;20222;-62
2023/04/12 05:54:46;;;;;;;24.90;18.57;;;14.00;93.70;;;;;;5014150;28;20223;-62
2023/04/12 05:57:16;;;;;;;23.73;17.30;;;14.00;93.40;;;;;;5011234;28;20220;-63
2023/04/12 05:59:46;;;;;;;20.77;17.30;;;14.10;93.00;;;;;;5022977;28;20261;-63
2023/04/12 06:02:13;;;;;;;20.40;17.03;;;14.20;92.90;;;;;;5004530;28;20535;-63
2023/04/12 06:04:40;;;;;;;19.60;17.33;;;14.20;92.90;;;;;;5008338;28;20712;-63
2023/04/12 06:07:18;;;;;;;23.17;16.97;;;14.30;92.90;;;;;;5003369;28;20549;-63
2023/04/12 06:09:46;;;;;;;17.97;14.57;;;14.50;92.70;;;;;;5003713;28;20508;-63
2023/04/12 06:12:14;;;;;;;19.77;14.97;;;14.60;92.50;;;;;;5001037;28;20668;-63
2023/04/12 06:14:41;;;;;;;19.10;14.80;;;14.80;91.80;;;;;;4999676;28;20216;-63
2023/04/12 06:17:08;;;;;;;18.30;15.07;;;14.80;91.70;;;;;;5030252;28;20231;-63
2023/04/12 06:19:35;;;;;;;17.43;13.87;;;14.80;91.40;;;;;;5001622;28;20231;-62
2023/04/12 06:22:02;;;;;;;18.83;14.97;;;14.90;91.50;;;;;;5013526;28;20211;-62
2023/04/12 06:24:30;;;;;;;16.90;13.97;;;14.90;91.70;;;;;;5013240;28;20224;-63
2023/04/12 06:26:57;;;;;;;16.27;14.07;;;15.00;91.70;;;;;;5012933;28;20303;-63
2023/04/12 06:29:25;;;;;;;17.13;14.37;;;15.10;91.30;;;;;;5012568;28;20282;-63
2023/04/12 06:31:52;;;;;;;16.27;13.23;;;15.10;91.20;;;;;;5036747;28;20303;-63
2023/04/12 06:34:23;;;;;;;19.27;15.50;;;15.10;91.20;;;;;;5037619;28;20209;-62
2023/04/12 06:36:56;;;;;;;14.93;12.93;;;15.10;91.20;;;;;;5013220;28;20230;-63
2023/04/12 06:39:24;;;;;;;18.30;13.37;;;15.20;91.30;;;;;;5006114;28;20202;-62
2023/04/12 06:41:50;;;;;;;17.40;12.27;;;15.20;91.20;;;;;;5002582;28;20218;-62
2023/04/12 06:44:20;;;;;;;18.13;13.53;;;15.20;91.30;;;;;;5001705;28;20247;-61
2023/04/12 06:46:47;;;;;;;19.67;13.77;;;15.30;91.40;;;;;;5005070;28;20282;-61
2023/04/12 06:49:14;;;;;;;16.80;13.80;;;15.30;91.50;;;;;;5003279;28;20272;-63
2023/04/12 06:51:41;;;;;;;16.47;13.40;;;15.40;91.60;;;;;;5001417;28;20206;-61
2023/04/12 06:54:08;;;;;;;16.10;13.40;;;15.50;91.60;;;;;;5006522;28;20208;-63
2023/04/12 06:56:38;;;;;;;15.97;12.67;;;15.70;91.50;;;;;;5008568;28;20232;-62
2023/04/12 06:59:05;;;;;;;15.10;12.60;;;15.80;91.10;;;;;;5002261;28;20205;-63
2023/04/12 07:01:32;;;;;;;14.83;12.53;;;15.90;90.80;;;;;;5006308;28;20682;-62
2023/04/12 07:03:59;;;;;;;15.70;12.23;;;16.00;90.40;;;;;;5004583;28;20232;-65
2023/04/12 07:06:27;;;;;;;15.17;12.00;;;16.10;90.50;;;;;;5008017;28;20528;-62
2023/04/12 07:08:54;;;;;;;14.67;11.90;;;16.20;90.20;;;;;;5007511;28;20199;-61
2023/04/12 07:11:22;;;;;;;17.40;12.40;;;16.30;90.20;;;;;;5005658;28;20201;-61
2023/04/12 07:13:50;;;;;;;15.30;12.83;;;16.40;89.80;;;;;;5023456;28;20202;-62
2023/04/12 07:16:17;;;;;;;15.63;13.47;;;16.50;89.90;;;;;;5005858;28;20223;-63
2023/04/12 07:18:44;;;;;;;14.47;11.77;;;16.60;90.20;;;;;;5002855;28;20207;-65
2023/04/12 07:21:16;;;;;;;15.53;12.40;;;16.80;90.00;;;;;;4998124;28;20213;-64
2023/04/12 07:23:43;;;;;;;13.37;11.23;;;16.90;89.80;;;;;;5002506;28;20187;-63
2023/04/12 07:26:10;;;;;;;13.13;11.53;;;16.90;89.10;;;;;;5002517;28;20272;-65
2023/04/12 07:28:38;;;;;;;17.13;11.67;;;17.00;87.10;;;;;;5001743;28;20260;-62
2023/04/12 07:31:06;;;;;;;13.57;11.43;;;16.90;87.00;;;;;;5006049;28;20213;-63
2023/04/12 07:33:36;;;;;;;14.43;11.13;;;16.90;87.00;;;;;;4999832;28;20524;-63
2023/04/12 07:36:06;;;;;;;12.90;10.57;;;16.90;86.60;;;;;;5003069;28;20218;-62
2023/04/12 07:38:34;;;;;;;14.70;11.40;;;16.80;87.30;;;;;;5002881;28;20202;-63
2023/04/12 07:41:01;;;;;;;13.20;11.80;;;16.80;87.00;;;;;;5007790;28;20323;-64
2023/04/12 07:43:28;;;;;;;15.00;11.63;;;16.80;86.60;;;;;;5001410;28;20236;-61
2023/04/12 07:45:55;;;;;;;14.73;13.23;;;16.80;87.20;;;;;;5002962;28;20257;-62
2023/04/12 07:48:23;;;;;;;13.80;11.13;;;16.80;87.90;;;;;;5035229;28;20286;-62
2023/04/12 07:50:50;;;;;;;12.37;11.07;;;16.80;87.90;;;;;;5000128;28;20209;-61
2023/04/12 07:53:26;;;;;;;14.77;11.77;;;16.80;87.20;;;;;;5007302;28;20240;-62
2023/04/12 07:55:54;;;;;;;16.87;12.00;;;16.80;87.30;;;;;;5000004;28;20185;-63
2023/04/12 07:58:23;;;;;;;15.20;12.53;;;16.80;87.00;;;;;;5002893;28;20206;-63
2023/04/12 08:00:52;;;;;;;16.50;11.73;;;16.80;87.20;;;;;;5002046;28;20217;-63
2023/04/12 08:03:19;;;;;;;14.27;11.73;;;16.80;87.00;;;;;;5005569;28;20194;-60
2023/04/12 08:05:52;;;;;;;14.13;11.23;;;16.70;87.20;;;;;;5000717;28;20514;-62
2023/04/12 08:08:21;;;;;;;12.90;11.30;;;16.70;87.60;;;;;;5005115;28;20209;-61
2023/04/12 08:10:48;;;;;;;13.00;11.20;;;16.70;87.20;;;;;;5006925;28;20203;-62
2023/04/12 08:13:15;;;;;;;12.13;10.83;;;16.70;87.50;;;;;;5001388;28;20207;-61
2023/04/12 08:15:42;;;;;;;12.40;10.83;;;16.70;87.40;;;;;;5000926;28;20243;-63
2023/04/12 08:18:10;;;;;;;14.53;11.47;;;16.70;86.60;;;;;;4999838;28;20222;-62
2023/04/12 08:20:39;;;;;;;13.43;11.47;;;16.70;86.60;;;;;;5005346;28;20247;-61
2023/04/12 08:23:06;;;;;;;16.33;12.03;;;16.70;86.90;;;;;;4999256;28;20214;-61
2023/04/12 08:25:33;;;;;;;13.33;11.93;;;16.70;86.90;;;;;;5001305;28;20532;-61
2023/04/12 08:28:00;;;;;;;16.00;11.70;;;16.70;85.50;;;;;;5003353;28;20210;-61
2023/04/12 08:30:27;;;;;;;15.63;12.10;;;16.70;86.20;;;;;;5004962;28;20203;-62
2023/04/12 08:32:55;;;;;;;15.97;12.33;;;16.70;86.70;;;;;;5002744;28;20205;-62
2023/04/12 08:35:22;;;;;;;12.60;11.30;;;16.70;86.90;;;;;;5005651;28;20213;-60
2023/04/12 08:37:50;;;;;;;17.83;11.20;;;16.80;86.60;;;;;;4999444;28;20248;-64
2023/04/12 08:40:17;;;;;;;12.40;11.07;;;16.80;86.30;;;;;;5006952;28;20207;-62
2023/04/12 08:42:45;;;;;;;12.40;11.10;;;16.90;85.90;;;;;;5004928;28;20219;-61
2023/04/12 08:45:12;;;;;;;16.97;11.93;;;16.90;86.10;;;;;;5011340;28;20335;-63
2023/04/12 08:47:42;;;;;;;12.97;11.27;;;17.00;86.00;;;;;;5011958;28;20201;-63
2023/04/12 08:50:15;;;;;;;12.27;10.23;;;17.10;86.40;;;;;;5002520;28;20616;-61
2023/04/12 08:52:42;;;;;;;15.47;11.83;;;17.20;86.20;;;;;;5007305;28;20221;-60
2023/04/12 08:55:10;;;;;;;14.53;11.60;;;17.20;85.60;;;;;;5002711;28;20217;-62
2023/04/12 08:57:40;;;;;;;15.53;11.53;;;17.30;85.20;;;;;;5020565;28;20220;-61
2023/04/12 09:00:09;;;;;;;12.67;11.17;;;17.30;85.00;;;;;;5001562;28;20262;-64
2023/04/12 09:02:37;;;;;;;14.87;11.63;;;17.30;84.60;;;;;;5010589;28;20203;-61
2023/04/12 09:05:05;;;;;;;12.70;11.00;;;17.30;84.50;;;;;;5005394;28;20696;-60
2023/04/12 09:07:32;;;;;;;12.87;11.43;;;17.30;84.20;;;;;;5007791;28;20201;-61
2023/04/12 09:10:00;;;;;;;13.47;11.10;;;17.40;84.30;;;;;;5002246;28;20207;-62
2023/04/12 09:12:27;;;;;;;16.40;11.47;;;17.40;84.70;;;;;;5006923;28;20641;-63
2023/04/12 09:15:12;;;;;;;15.03;11.47;;;17.40;84.40;;;;;;5020240;28;20360;-61
2023/04/12 09:17:40;;;;;;;13.17;10.90;;;17.50;83.90;;;;;;5008919;28;20235;-65
2023/04/12 09:20:11;;;;;;;14.70;11.73;;;17.60;82.90;;;;;;5010806;28;20202;-61
2023/04/12 09:22:43;;;;;;;17.93;10.80;;;17.60;83.20;;;;;;5006982;28;20610;-63
2023/04/12 09:25:11;;;;;;;15.27;12.70;;;17.70;83.70;;;;;;5006857;28;20198;-62
2023/04/12 09:28:18;;;;;;;12.10;10.80;;;17.80;83.40;;;;;;5008142;28;20207;-62
2023/04/12 09:30:50;;;;;;;13.47;10.67;;;18.00;82.00;;;;;;5004040;28;20272;-64
2023/04/12 09:33:22;;;;;;;14.97;12.27;;;18.10;82.00;;;;;;5006852;28;20275;-62
2023/04/12 09:35:50;;;;;;;13.93;11.43;;;18.30;82.00;;;;;;5009511;28;20295;-61
2023/04/12 09:38:17;;;;;;;15.00;11.67;;;18.40;81.00;;;;;;5006918;28;20626;-64
2023/04/12 09:40:44;;;;;;;13.60;11.53;;;18.60;79.60;;;;;;5003968;28;20190;-62
2023/04/12 09:43:11;;;;;;;13.20;10.70;;;18.70;79.60;;;;;;5002864;28;20312;-62
2023/04/12 09:45:38;;;;;;;12.60;11.17;;;18.80;77.90;;;;;;5039338;28;20233;-62
2023/04/12 09:48:06;;;;;;;14.20;10.50;;;18.90;78.50;;;;;;5002938;28;20245;-62
2023/04/12 09:50:34;;;;;;;11.40;9.97;;;19.00;79.20;;;;;;5009025;28;20219;-62
2023/04/12 09:53:02;;;;;;;12.30;9.13;;;19.20;78.20;;;;;;5007365;28;20213;-62
2023/04/12 09:55:30;;;;;;;12.40;9.63;;;19.30;78.10;;;;;;5002377;28;20207;-62
2023/04/12 09:58:02;;;;;;;11.30;9.30;;;19.40;78.00;;;;;;5007570;28;20222;-62
2023/04/12 10:00:32;;;;;;;11.90;9.20;;;19.50;77.50;;;;;;5007909;28;20560;-62
2023/04/12 10:03:00;;;;;;;12.73;10.03;;;19.60;76.70;;;;;;5005028;28;20205;-62
2023/04/12 10:05:28;;;;;;;11.30;10.10;;;19.60;75.80;;;;;;5005441;28;20247;-62
2023/04/12 10:07:58;;;;;;;12.27;9.80;;;19.70;75.90;;;;;;5002073;28;20204;-62
2023/04/12 10:10:29;;;;;;;11.10;9.67;;;19.70;74.90;;;;;;5007957;28;20390;-62
2023/04/12 10:12:57;;;;;;;11.60;9.93;;;19.60;74.10;;;;;;5000077;28;20196;-62
2023/04/12 10:15:24;;;;;;;11.57;10.23;;;19.50;74.30;;;;;;5007458;28;20215;-62
2023/04/12 10:17:57;;;;;;;12.63;10.23;;;19.40;75.00;;;;;;5010583;28;20236;-62
2023/04/12 10:20:24;;;;;;;12.60;11.27;;;19.40;75.20;;;;;;5004049;28;20200;-62
2023/04/12 10:22:56;;;;;;;15.37;10.87;;;19.40;75.30;;;;;;5001732;28;20208;-62
2023/04/12 10:25:26;;;;;;;12.20;10.97;;;19.30;75.70;;;;;;5008658;28;20211;-62
2023/04/12 10:27:53;;;;;;;12.03;9.47;;;19.40;76.40;;;;;;5008919;28;20230;-63
2023/04/12 10:30:21;;;;;;;10.37;9.27;;;19.40;76.00;;;;;;5007204;28;20338;-62
2023/04/12 10:33:03;;;;;;;14.23;10.03;;;19.50;75.80;;;;;;5001430;28;20599;-62
2023/04/12 10:35:55;;;;;;;13.33;9.00;;;19.60;75.90;;;;;;5004180;28;20204;-62
2023/04/12 10:38:25;;;;;;;12.17;9.37;;;19.70;74.30;;;;;;5009290;28;20688;-62
2023/04/12 10:41:12;;;;;;;11.00;9.60;;;19.80;74.60;;;;;;5002560;28;20643;-62
2023/04/12 10:43:40;;;;;;;10.97;9.67;;;20.00;74.90;;;;;;5004734;28;20285;-62
2023/04/12 10:46:07;;;;;;;11.27;10.17;;;20.10;72.50;;;;;;5003002;28;20296;-62
2023/04/12 10:48:36;;;;;;;12.37;9.63;;;20.10;72.90;;;;;;5007319;28;20245;-62
2023/04/12 10:51:27;;;;;;;10.13;9.13;;;20.20;73.30;;;;;;5000493;28;20263;-62
2023/04/12 10:54:07;;;;;;;10.63;9.37;;;20.30;72.60;;;;;;5008220;28;20247;-62
2023/04/12 10:56:39;;;;;;;9.87;8.87;;;20.50;71.80;;;;;;5005845;28;20277;-62
2023/04/12 10:59:13;;;;;;;11.93;10.17;;;20.60;72.10;;;;;;5013105;28;20250;-62
2023/04/12 11:02:12;;;;;;;11.20;9.43;;;20.70;72.10;;;;;;5033941;28;20192;-62
2023/04/12 11:05:03;;;;;;;9.37;8.27;;;20.80;71.50;;;;;;5008255;28;20540;-62
2023/04/12 11:07:53;;;;;;;13.97;8.97;;;20.90;71.50;;;;;;5005344;28;20606;-62
2023/04/12 11:10:40;;;;;;;11.13;9.23;;;21.00;71.10;;;;;;5006323;28;20646;-62
2023/04/12 11:13:14;;;;;;;10.23;9.17;;;21.00;71.10;;;;;;5021143;28;20297;-62
2023/04/12 11:15:42;;;;;;;9.13;8.23;;;20.90;70.30;;;;;;5001981;28;20296;-63
2023/04/12 11:18:12;;;;;;;10.67;8.77;;;20.80;71.40;;;;;;5000723;28;20220;-62
2023/04/12 11:20:40;;;;;;;9.73;8.50;;;20.80;71.60;;;;;;5006912;28;20207;-62
2023/04/12 11:23:07;;;;;;;10.13;9.20;;;20.80;70.50;;;;;;5009864;28;20196;-62
2023/04/12 11:25:37;;;;;;;13.30;9.47;;;20.70;71.60;;;;;;5003328;28;20271;-62
2023/04/12 11:28:04;;;;;;;11.07;8.77;;;20.70;70.80;;;;;;5002339;28;20196;-63
2023/04/12 11:30:56;;;;;;;9.37;8.17;;;20.60;72.00;;;;;;5005179;28;20213;-62
2023/04/12 11:33:37;;;;;;;9.83;7.67;;;20.60;72.40;;;;;;5002531;28;20208;-62
2023/04/12 11:36:13;;;;;;;11.03;9.03;;;20.70;72.10;;;;;;5004655;28;20302;-62
2023/04/12 11:38:44;;;;;;;9.53;8.50;;;20.70;70.80;;;;;;5006443;28;20215;-62
2023/04/12 11:41:13;;;;;;;9.63;8.63;;;20.60;70.90;;;;;;5002927;28;20204;-62
2023/04/12 11:43:41;;;;;;;9.47;8.47;;;20.60;71.60;;;;;;5002703;28;20869;-62
2023/04/12 11:46:08;;;;;;;9.17;8.27;;;20.60;72.70;;;;;;5004274;28;20598;-62
2023/04/12 11:48:37;;;;;;;11.63;8.27;;;20.70;72.60;;;;;;5003713;28;20614;-62
2023/04/12 11:51:23;;;;;;;9.93;7.90;;;20.80;72.10;;;;;;5001399;28;20206;-62
2023/04/12 11:53:55;;;;;;;9.60;8.07;;;20.90;72.20;;;;;;5001825;28;20214;-62
2023/04/12 11:56:23;;;;;;;8.23;7.43;;;20.90;69.40;;;;;;5003162;28;20279;-62
2023/04/12 11:58:50;;;;;;;9.87;7.97;;;20.90;70.10;;;;;;5002960;28;20299;-62
2023/04/12 12:01:22;;;;;;;9.20;8.10;;;20.90;71.00;;;;;;5002888;28;20278;-62
2023/04/12 12:03:49;;;;;;;9.27;7.83;;;21.00;71.70;;;;;;5009760;28;20218;-62
2023/04/12 12:06:17;;;;;;;8.97;7.90;;;21.00;71.40;;;;;;4999868;28;20196;-62
2023/04/12 12:08:45;;;;;;;7.90;7.03;;;21.10;71.10;;;;;;5001285;28;20204;-62
2023/04/12 12:11:12;;;;;;;9.60;8.63;;;21.20;70.50;;;;;;5005373;28;20200;-62
2023/04/12 12:13:47;;;;;;;11.57;8.17;;;21.30;69.50;;;;;;5004922;28;20218;-62
2023/04/12 12:16:14;;;;;;;13.27;9.13;;;21.40;69.20;;;;;;5009010;28;20199;-62
2023/04/12 12:18:42;;;;;;;8.47;7.60;;;21.40;67.50;;;;;;5007581;28;20242;-62
2023/04/12 12:21:12;;;;;;;11.83;8.03;;;21.40;68.80;;;;;;5006548;28;20216;-62
2023/04/12 12:23:42;;;;;;;9.77;8.77;;;21.50;70.00;;;;;;5002959;28;20279;-62
2023/04/12 12:26:09;;;;;;;9.13;7.67;;;21.50;67.80;;;;;;5005327;28;20204;-62
2023/04/12 12:28:52;;;;;;;10.50;8.23;;;21.50;67.50;;;;;;5004290;28;20203;-62
2023/04/12 12:31:22;;;;;;;8.80;7.73;;;21.50;68.00;;;;;;5029498;28;20631;-62
2023/04/12 12:33:57;;;;;;;8.30;7.50;;;21.50;68.00;;;;;;5006815;28;20203;-62
2023/04/12 12:36:32;;;;;;;8.77;7.87;;;21.50;67.60;;;;;;5009982;28;20207;-62
2023/04/12 12:39:05;;;;;;;8.80;7.37;;;21.50;68.10;;;;;;5007898;28;20566;-62
2023/04/12 12:41:33;;;;;;;8.67;7.83;;;21.50;66.30;;;;;;5005862;28;20235;-62
2023/04/12 12:44:00;;;;;;;9.40;7.50;;;21.40;67.10;;;;;;5010026;28;20235;-62
2023/04/12 12:46:28;;;;;;;7.97;7.17;;;21.40;68.30;;;;;;5003058;28;20200;-62
2023/04/12 12:49:14;;;;;;;8.40;7.50;;;21.50;66.50;;;;;;5006949;28;20211;-62